sensor_id;sensor_type;location;lat;lon;timestamp;P1;durP1;ratioP1;P2;durP2;ratioP2
4210;SDS011;2119;48.828;12.396;2024-03-25T00:01:06;4.23;;;3.03;;
4210;SDS011;2119;48.828;12.396;2024-03-25T00:06:06;7.50;;;2.57;;
4210;SDS011;2119;48.828;12.396;2024-03-25T00:11:06;3.55;;;2.40;;
4210;SDS011;2119;48.828;12.396;2024-03-25T00:16:07;5.77;;;2.30;;
4210;SDS011;2119;48.828;12.396;2024-03-25T00:21:07;3.00;;;1.90;;
4210;SDS011;2119;48.828;12.396;2024-03-25T00:26:08;4.45;;;2.53;;
4210;SDS011;2119;48.828;12.396;2024-03-25T00:31:08;2.60;;;2.13;;
4210;SDS011;2119;48.828;12.396;2024-03-25T00:36:08;3.20;;;2.37;;
4210;SDS011;2119;48.828;12.396;2024-03-25T00:41:08;3.50;;;2.23;;
4210;SDS011;2119;48.828;12.396;2024-03-25T00:46:09;3.72;;;2.00;;
4210;SDS011;2119;48.828;12.396;2024-03-25T00:51:09;2.40;;;1.80;;
4210;SDS011;2119;48.828;12.396;2024-03-25T00:56:09;2.37;;;2.17;;
4210;SDS011;2119;48.828;12.396;2024-03-25T01:01:09;2.13;;;1.92;;
4210;SDS011;2119;48.828;12.396;2024-03-25T01:06:09;4.67;;;2.03;;
4210;SDS011;2119;48.828;12.396;2024-03-25T01:11:10;3.75;;;2.30;;
4210;SDS011;2119;48.828;12.396;2024-03-25T01:16:10;8.73;;;1.53;;
4210;SDS011;2119;48.828;12.396;2024-03-25T01:21:10;4.57;;;2.13;;
4210;SDS011;2119;48.828;12.396;2024-03-25T01:26:10;2.83;;;1.77;;
4210;SDS011;2119;48.828;12.396;2024-03-25T01:31:10;3.13;;;2.00;;
4210;SDS011;2119;48.828;12.396;2024-03-25T01:36:11;3.07;;;2.20;;
4210;SDS011;2119;48.828;12.396;2024-03-25T01:41:19;2.70;;;2.50;;
4210;SDS011;2119;48.828;12.396;2024-03-25T01:46:19;2.63;;;2.43;;
4210;SDS011;2119;48.828;12.396;2024-03-25T01:51:21;3.27;;;2.50;;
4210;SDS011;2119;48.828;12.396;2024-03-25T01:56:23;4.37;;;2.80;;
4210;SDS011;2119;48.828;12.396;2024-03-25T02:01:24;2.37;;;2.00;;
4210;SDS011;2119;48.828;12.396;2024-03-25T02:06:25;2.97;;;2.58;;
4210;SDS011;2119;48.828;12.396;2024-03-25T02:11:26;4.10;;;2.70;;
4210;SDS011;2119;48.828;12.396;2024-03-25T02:16:27;5.20;;;2.50;;
4210;SDS011;2119;48.828;12.396;2024-03-25T02:21:27;6.93;;;2.80;;
4210;SDS011;2119;48.828;12.396;2024-03-25T02:26:28;3.00;;;2.57;;
4210;SDS011;2119;48.828;12.396;2024-03-25T02:31:28;2.72;;;2.53;;
4210;SDS011;2119;48.828;12.396;2024-03-25T02:36:28;8.23;;;3.10;;
4210;SDS011;2119;48.828;12.396;2024-03-25T02:41:28;3.22;;;2.50;;
4210;SDS011;2119;48.828;12.396;2024-03-25T02:46:30;3.47;;;3.17;;
4210;SDS011;2119;48.828;12.396;2024-03-25T02:51:31;2.93;;;2.40;;
4210;SDS011;2119;48.828;12.396;2024-03-25T02:56:31;2.93;;;2.40;;
4210;SDS011;2119;48.828;12.396;2024-03-25T03:01:31;3.90;;;2.50;;
4210;SDS011;2119;48.828;12.396;2024-03-25T03:06:31;4.30;;;2.10;;
4210;SDS011;2119;48.828;12.396;2024-03-25T03:11:31;5.10;;;2.73;;
4210;SDS011;2119;48.828;12.396;2024-03-25T03:16:32;2.43;;;1.77;;
4210;SDS011;2119;48.828;12.396;2024-03-25T03:21:32;5.20;;;3.45;;
4210;SDS011;2119;48.828;12.396;2024-03-25T03:26:32;3.40;;;2.40;;
4210;SDS011;2119;48.828;12.396;2024-03-25T03:31:32;4.10;;;2.40;;
4210;SDS011;2119;48.828;12.396;2024-03-25T03:36:33;2.53;;;2.33;;
4210;SDS011;2119;48.828;12.396;2024-03-25T03:41:33;4.43;;;3.37;;
4210;SDS011;2119;48.828;12.396;2024-03-25T03:46:33;4.97;;;2.37;;
4210;SDS011;2119;48.828;12.396;2024-03-25T03:51:33;2.90;;;2.30;;
4210;SDS011;2119;48.828;12.396;2024-03-25T03:56:33;3.13;;;2.83;;
4210;SDS011;2119;48.828;12.396;2024-03-25T04:01:33;3.72;;;3.42;;
4210;SDS011;2119;48.828;12.396;2024-03-25T04:06:34;3.00;;;2.80;;
4210;SDS011;2119;48.828;12.396;2024-03-25T04:11:37;2.60;;;2.40;;
4210;SDS011;2119;48.828;12.396;2024-03-25T04:16:37;2.20;;;2.00;;
4210;SDS011;2119;48.828;12.396;2024-03-25T04:21:37;4.03;;;2.77;;
4210;SDS011;2119;48.828;12.396;2024-03-25T04:26:39;5.30;;;2.70;;
4210;SDS011;2119;48.828;12.396;2024-03-25T04:31:39;2.60;;;2.27;;
4210;SDS011;2119;48.828;12.396;2024-03-25T04:36:39;2.60;;;2.40;;
4210;SDS011;2119;48.828;12.396;2024-03-25T04:41:39;4.03;;;2.93;;
4210;SDS011;2119;48.828;12.396;2024-03-25T04:46:40;4.90;;;2.50;;
4210;SDS011;2119;48.828;12.396;2024-03-25T04:51:40;4.23;;;2.43;;
4210;SDS011;2119;48.828;12.396;2024-03-25T04:56:41;3.87;;;2.30;;
4210;SDS011;2119;48.828;12.396;2024-03-25T05:01:41;3.10;;;2.47;;
4210;SDS011;2119;48.828;12.396;2024-03-25T05:06:41;4.43;;;2.70;;
4210;SDS011;2119;48.828;12.396;2024-03-25T05:11:42;5.17;;;2.63;;
4210;SDS011;2119;48.828;12.396;2024-03-25T05:16:42;3.97;;;2.57;;
4210;SDS011;2119;48.828;12.396;2024-03-25T05:21:42;4.20;;;3.80;;
4210;SDS011;2119;48.828;12.396;2024-03-25T05:26:42;5.43;;;2.90;;
4210;SDS011;2119;48.828;12.396;2024-03-25T05:31:55;11.63;;;6.80;;
4210;SDS011;2119;48.828;12.396;2024-03-25T05:36:55;5.20;;;3.23;;
4210;SDS011;2119;48.828;12.396;2024-03-25T05:41:55;7.30;;;3.50;;
4210;SDS011;2119;48.828;12.396;2024-03-25T05:46:56;4.40;;;3.30;;
4210;SDS011;2119;48.828;12.396;2024-03-25T05:51:56;3.90;;;3.20;;
4210;SDS011;2119;48.828;12.396;2024-03-25T05:56:56;3.27;;;2.97;;
4210;SDS011;2119;48.828;12.396;2024-03-25T06:01:56;3.67;;;3.37;;
4210;SDS011;2119;48.828;12.396;2024-03-25T06:06:56;8.10;;;4.87;;
4210;SDS011;2119;48.828;12.396;2024-03-25T06:11:57;4.77;;;3.77;;
4210;SDS011;2119;48.828;12.396;2024-03-25T06:16:57;6.80;;;4.60;;
4210;SDS011;2119;48.828;12.396;2024-03-25T06:21:57;9.20;;;4.77;;
4210;SDS011;2119;48.828;12.396;2024-03-25T06:26:57;5.77;;;3.80;;
4210;SDS011;2119;48.828;12.396;2024-03-25T06:31:57;4.60;;;3.70;;
4210;SDS011;2119;48.828;12.396;2024-03-25T06:37:16;4.67;;;3.90;;
4210;SDS011;2119;48.828;12.396;2024-03-25T06:42:16;6.87;;;4.57;;
4210;SDS011;2119;48.828;12.396;2024-03-25T06:47:16;5.57;;;3.90;;
4210;SDS011;2119;48.828;12.396;2024-03-25T06:52:17;5.88;;;3.75;;
4210;SDS011;2119;48.828;12.396;2024-03-25T06:57:17;6.10;;;4.00;;
4210;SDS011;2119;48.828;12.396;2024-03-25T07:02:17;4.90;;;4.00;;
4210;SDS011;2119;48.828;12.396;2024-03-25T07:07:17;6.23;;;3.83;;
4210;SDS011;2119;48.828;12.396;2024-03-25T07:12:17;4.60;;;4.07;;
4210;SDS011;2119;48.828;12.396;2024-03-25T07:17:18;6.00;;;5.03;;
4210;SDS011;2119;48.828;12.396;2024-03-25T07:22:19;5.53;;;4.30;;
4210;SDS011;2119;48.828;12.396;2024-03-25T07:27:19;9.37;;;4.60;;
4210;SDS011;2119;48.828;12.396;2024-03-25T07:32:19;6.67;;;3.40;;
4210;SDS011;2119;48.828;12.396;2024-03-25T07:37:19;8.30;;;5.18;;
4210;SDS011;2119;48.828;12.396;2024-03-25T07:42:19;6.10;;;5.03;;
4210;SDS011;2119;48.828;12.396;2024-03-25T07:47:19;5.10;;;4.70;;
4210;SDS011;2119;48.828;12.396;2024-03-25T07:52:20;5.37;;;4.23;;
4210;SDS011;2119;48.828;12.396;2024-03-25T07:57:20;5.23;;;3.93;;
4210;SDS011;2119;48.828;12.396;2024-03-25T08:02:20;4.90;;;3.53;;
4210;SDS011;2119;48.828;12.396;2024-03-25T08:07:21;6.80;;;5.00;;
4210;SDS011;2119;48.828;12.396;2024-03-25T08:12:21;6.75;;;6.05;;
4210;SDS011;2119;48.828;12.396;2024-03-25T08:17:21;6.40;;;5.45;;
4210;SDS011;2119;48.828;12.396;2024-03-25T08:22:21;6.57;;;4.93;;
4210;SDS011;2119;48.828;12.396;2024-03-25T08:27:22;13.40;;;6.70;;
4210;SDS011;2119;48.828;12.396;2024-03-25T08:32:22;5.28;;;4.78;;
4210;SDS011;2119;48.828;12.396;2024-03-25T08:37:22;4.15;;;3.85;;
4210;SDS011;2119;48.828;12.396;2024-03-25T08:42:22;4.37;;;4.07;;
4210;SDS011;2119;48.828;12.396;2024-03-25T08:47:23;4.65;;;3.75;;
4210;SDS011;2119;48.828;12.396;2024-03-25T08:52:23;5.63;;;3.07;;
4210;SDS011;2119;48.828;12.396;2024-03-25T08:57:23;4.73;;;3.90;;
4210;SDS011;2119;48.828;12.396;2024-03-25T09:02:23;4.57;;;3.77;;
4210;SDS011;2119;48.828;12.396;2024-03-25T09:07:23;6.20;;;4.23;;
4210;SDS011;2119;48.828;12.396;2024-03-25T09:12:24;4.70;;;3.80;;
4210;SDS011;2119;48.828;12.396;2024-03-25T09:17:24;3.33;;;3.13;;
4210;SDS011;2119;48.828;12.396;2024-03-25T09:22:25;3.37;;;3.07;;
4210;SDS011;2119;48.828;12.396;2024-03-25T09:27:25;4.20;;;3.43;;
4210;SDS011;2119;48.828;12.396;2024-03-25T09:32:25;3.17;;;2.60;;
4210;SDS011;2119;48.828;12.396;2024-03-25T09:37:26;4.67;;;3.03;;
4210;SDS011;2119;48.828;12.396;2024-03-25T09:42:27;3.30;;;3.00;;
4210;SDS011;2119;48.828;12.396;2024-03-25T09:47:28;6.13;;;4.30;;
4210;SDS011;2119;48.828;12.396;2024-03-25T09:52:28;8.30;;;5.93;;
4210;SDS011;2119;48.828;12.396;2024-03-25T09:57:28;9.33;;;5.97;;
4210;SDS011;2119;48.828;12.396;2024-03-25T10:02:28;3.40;;;3.10;;
4210;SDS011;2119;48.828;12.396;2024-03-25T10:07:29;5.03;;;2.77;;
4210;SDS011;2119;48.828;12.396;2024-03-25T10:12:29;3.27;;;3.07;;
4210;SDS011;2119;48.828;12.396;2024-03-25T10:17:30;4.07;;;2.97;;
4210;SDS011;2119;48.828;12.396;2024-03-25T10:22:30;3.63;;;2.80;;
4210;SDS011;2119;48.828;12.396;2024-03-25T10:27:40;2.87;;;2.67;;
4210;SDS011;2119;48.828;12.396;2024-03-25T10:32:40;3.17;;;2.87;;
4210;SDS011;2119;48.828;12.396;2024-03-25T10:37:41;4.67;;;2.70;;
4210;SDS011;2119;48.828;12.396;2024-03-25T10:42:41;3.25;;;2.95;;
4210;SDS011;2119;48.828;12.396;2024-03-25T10:47:42;3.97;;;3.03;;
4210;SDS011;2119;48.828;12.396;2024-03-25T10:52:43;3.10;;;2.80;;
4210;SDS011;2119;48.828;12.396;2024-03-25T10:57:43;2.20;;;2.00;;
4210;SDS011;2119;48.828;12.396;2024-03-25T11:02:44;3.63;;;3.30;;
4210;SDS011;2119;48.828;12.396;2024-03-25T11:07:44;6.10;;;3.83;;
4210;SDS011;2119;48.828;12.396;2024-03-25T11:12:46;4.53;;;2.50;;
4210;SDS011;2119;48.828;12.396;2024-03-25T11:17:49;4.83;;;3.73;;
4210;SDS011;2119;48.828;12.396;2024-03-25T11:22:50;2.93;;;2.73;;
4210;SDS011;2119;48.828;12.396;2024-03-25T11:27:50;4.13;;;3.50;;
4210;SDS011;2119;48.828;12.396;2024-03-25T11:32:54;4.60;;;3.33;;
4210;SDS011;2119;48.828;12.396;2024-03-25T11:37:54;2.37;;;2.17;;
4210;SDS011;2119;48.828;12.396;2024-03-25T11:42:55;4.40;;;3.30;;
4210;SDS011;2119;48.828;12.396;2024-03-25T11:47:55;3.13;;;2.92;;
4210;SDS011;2119;48.828;12.396;2024-03-25T11:52:55;3.90;;;3.23;;
4210;SDS011;2119;48.828;12.396;2024-03-25T11:57:55;4.63;;;2.50;;
4210;SDS011;2119;48.828;12.396;2024-03-25T12:02:56;2.23;;;2.03;;
4210;SDS011;2119;48.828;12.396;2024-03-25T12:07:56;4.40;;;2.33;;
4210;SDS011;2119;48.828;12.396;2024-03-25T12:12:57;6.20;;;2.80;;
4210;SDS011;2119;48.828;12.396;2024-03-25T12:17:57;3.03;;;2.37;;
4210;SDS011;2119;48.828;12.396;2024-03-25T12:22:58;3.23;;;2.57;;
4210;SDS011;2119;48.828;12.396;2024-03-25T12:27:58;3.43;;;2.50;;
4210;SDS011;2119;48.828;12.396;2024-03-25T12:33:00;2.40;;;2.20;;
4210;SDS011;2119;48.828;12.396;2024-03-25T12:38:00;3.10;;;2.50;;
4210;SDS011;2119;48.828;12.396;2024-03-25T12:43:00;5.87;;;3.03;;
4210;SDS011;2119;48.828;12.396;2024-03-25T12:48:01;2.97;;;2.77;;
4210;SDS011;2119;48.828;12.396;2024-03-25T12:53:01;3.43;;;3.10;;
4210;SDS011;2119;48.828;12.396;2024-03-25T12:58:03;3.63;;;3.40;;
4210;SDS011;2119;48.828;12.396;2024-03-25T13:03:03;3.50;;;3.30;;
4210;SDS011;2119;48.828;12.396;2024-03-25T13:08:03;5.28;;;3.50;;
4210;SDS011;2119;48.828;12.396;2024-03-25T13:13:03;4.03;;;3.73;;
4210;SDS011;2119;48.828;12.396;2024-03-25T13:18:05;4.37;;;3.97;;
4210;SDS011;2119;48.828;12.396;2024-03-25T13:23:05;3.78;;;3.35;;
4210;SDS011;2119;48.828;12.396;2024-03-25T13:28:05;4.65;;;3.90;;
4210;SDS011;2119;48.828;12.396;2024-03-25T13:33:06;3.73;;;3.43;;
4210;SDS011;2119;48.828;12.396;2024-03-25T13:38:06;4.20;;;3.80;;
4210;SDS011;2119;48.828;12.396;2024-03-25T13:43:07;3.80;;;3.50;;
4210;SDS011;2119;48.828;12.396;2024-03-25T13:48:09;4.30;;;3.37;;
4210;SDS011;2119;48.828;12.396;2024-03-25T13:53:09;6.43;;;3.83;;
4210;SDS011;2119;48.828;12.396;2024-03-25T13:58:09;4.27;;;3.87;;
4210;SDS011;2119;48.828;12.396;2024-03-25T14:03:10;3.60;;;3.30;;
4210;SDS011;2119;48.828;12.396;2024-03-25T14:08:10;4.03;;;3.70;;
4210;SDS011;2119;48.828;12.396;2024-03-25T14:13:10;3.60;;;3.00;;
4210;SDS011;2119;48.828;12.396;2024-03-25T14:18:10;4.27;;;3.70;;
4210;SDS011;2119;48.828;12.396;2024-03-25T14:23:10;3.37;;;3.17;;
4210;SDS011;2119;48.828;12.396;2024-03-25T14:28:11;3.60;;;3.30;;
4210;SDS011;2119;48.828;12.396;2024-03-25T14:33:11;3.30;;;3.10;;
4210;SDS011;2119;48.828;12.396;2024-03-25T14:38:12;3.50;;;2.97;;
4210;SDS011;2119;48.828;12.396;2024-03-25T14:43:12;3.87;;;3.10;;
4210;SDS011;2119;48.828;12.396;2024-03-25T14:48:13;3.50;;;3.13;;
4210;SDS011;2119;48.828;12.396;2024-03-25T14:53:13;14.73;;;3.90;;
4210;SDS011;2119;48.828;12.396;2024-03-25T14:58:14;9.50;;;3.63;;
4210;SDS011;2119;48.828;12.396;2024-03-25T15:03:14;2.90;;;2.67;;
4210;SDS011;2119;48.828;12.396;2024-03-25T15:08:14;4.10;;;3.37;;
4210;SDS011;2119;48.828;12.396;2024-03-25T15:13:14;4.13;;;3.10;;
4210;SDS011;2119;48.828;12.396;2024-03-25T15:18:14;4.15;;;2.80;;
4210;SDS011;2119;48.828;12.396;2024-03-25T15:23:15;3.33;;;3.03;;
4210;SDS011;2119;48.828;12.396;2024-03-25T15:28:15;3.50;;;3.00;;
4210;SDS011;2119;48.828;12.396;2024-03-25T15:33:16;2.88;;;2.42;;
4210;SDS011;2119;48.828;12.396;2024-03-25T15:38:16;3.50;;;2.73;;
4210;SDS011;2119;48.828;12.396;2024-03-25T15:43:17;4.23;;;2.63;;
4210;SDS011;2119;48.828;12.396;2024-03-25T15:48:17;2.72;;;2.53;;
4210;SDS011;2119;48.828;12.396;2024-03-25T15:53:17;4.50;;;2.77;;
4210;SDS011;2119;48.828;12.396;2024-03-25T15:58:19;3.50;;;2.90;;
4210;SDS011;2119;48.828;12.396;2024-03-25T16:03:19;2.80;;;2.60;;
4210;SDS011;2119;48.828;12.396;2024-03-25T16:08:19;2.60;;;2.40;;
4210;SDS011;2119;48.828;12.396;2024-03-25T16:13:20;3.30;;;2.33;;
4210;SDS011;2119;48.828;12.396;2024-03-25T16:18:21;2.90;;;2.70;;
4210;SDS011;2119;48.828;12.396;2024-03-25T16:23:22;2.97;;;2.50;;
4210;SDS011;2119;48.828;12.396;2024-03-25T16:28:22;3.83;;;3.50;;
4210;SDS011;2119;48.828;12.396;2024-03-25T16:33:22;3.47;;;2.92;;
4210;SDS011;2119;48.828;12.396;2024-03-25T16:38:24;3.83;;;3.53;;
4210;SDS011;2119;48.828;12.396;2024-03-25T16:43:24;5.80;;;3.33;;
4210;SDS011;2119;48.828;12.396;2024-03-25T16:48:24;4.17;;;3.83;;
4210;SDS011;2119;48.828;12.396;2024-03-25T16:53:24;4.47;;;3.57;;
4210;SDS011;2119;48.828;12.396;2024-03-25T16:58:24;3.83;;;3.53;;
4210;SDS011;2119;48.828;12.396;2024-03-25T17:03:25;3.97;;;3.63;;
4210;SDS011;2119;48.828;12.396;2024-03-25T17:08:25;4.70;;;3.30;;
4210;SDS011;2119;48.828;12.396;2024-03-25T17:13:26;3.70;;;3.40;;
4210;SDS011;2119;48.828;12.396;2024-03-25T17:18:27;4.23;;;3.83;;
4210;SDS011;2119;48.828;12.396;2024-03-25T17:23:27;4.57;;;4.27;;
4210;SDS011;2119;48.828;12.396;2024-03-25T17:28:27;7.87;;;7.13;;
4210;SDS011;2119;48.828;12.396;2024-03-25T17:33:32;4.90;;;4.50;;
4210;SDS011;2119;48.828;12.396;2024-03-25T17:38:33;4.60;;;4.20;;
4210;SDS011;2119;48.828;12.396;2024-03-25T17:43:33;4.83;;;4.30;;
4210;SDS011;2119;48.828;12.396;2024-03-25T17:48:33;4.47;;;4.07;;
4210;SDS011;2119;48.828;12.396;2024-03-25T17:53:34;5.27;;;4.77;;
4210;SDS011;2119;48.828;12.396;2024-03-25T17:58:34;5.07;;;4.57;;
4210;SDS011;2119;48.828;12.396;2024-03-25T18:03:34;5.60;;;5.13;;
4210;SDS011;2119;48.828;12.396;2024-03-25T18:08:35;6.07;;;5.47;;
4210;SDS011;2119;48.828;12.396;2024-03-25T18:13:35;6.70;;;5.50;;
4210;SDS011;2119;48.828;12.396;2024-03-25T18:18:35;7.47;;;5.23;;
4210;SDS011;2119;48.828;12.396;2024-03-25T18:23:35;9.87;;;6.70;;
4210;SDS011;2119;48.828;12.396;2024-03-25T18:28:36;5.70;;;5.10;;
4210;SDS011;2119;48.828;12.396;2024-03-25T18:33:36;5.63;;;5.10;;
4210;SDS011;2119;48.828;12.396;2024-03-25T18:38:36;5.17;;;4.77;;
4210;SDS011;2119;48.828;12.396;2024-03-25T18:43:36;5.17;;;4.77;;
4210;SDS011;2119;48.828;12.396;2024-03-25T18:48:36;6.07;;;4.70;;
4210;SDS011;2119;48.828;12.396;2024-03-25T18:53:36;6.30;;;5.70;;
4210;SDS011;2119;48.828;12.396;2024-03-25T18:58:37;6.03;;;5.63;;
4210;SDS011;2119;48.828;12.396;2024-03-25T19:03:37;7.47;;;6.10;;
4210;SDS011;2119;48.828;12.396;2024-03-25T19:08:37;6.55;;;5.95;;
4210;SDS011;2119;48.828;12.396;2024-03-25T19:13:38;6.90;;;6.20;;
4210;SDS011;2119;48.828;12.396;2024-03-25T19:18:38;6.70;;;6.10;;
4210;SDS011;2119;48.828;12.396;2024-03-25T19:23:38;6.27;;;5.37;;
4210;SDS011;2119;48.828;12.396;2024-03-25T19:28:39;6.15;;;5.65;;
4210;SDS011;2119;48.828;12.396;2024-03-25T19:33:40;6.90;;;6.00;;
4210;SDS011;2119;48.828;12.396;2024-03-25T19:38:40;8.20;;;7.40;;
4210;SDS011;2119;48.828;12.396;2024-03-25T19:43:41;6.70;;;5.95;;
4210;SDS011;2119;48.828;12.396;2024-03-25T19:48:41;14.50;;;10.70;;
4210;SDS011;2119;48.828;12.396;2024-03-25T19:53:41;10.53;;;9.47;;
4210;SDS011;2119;48.828;12.396;2024-03-25T19:58:41;9.73;;;7.60;;
4210;SDS011;2119;48.828;12.396;2024-03-25T20:03:42;10.57;;;7.67;;
4210;SDS011;2119;48.828;12.396;2024-03-25T20:08:42;7.47;;;6.68;;
4210;SDS011;2119;48.828;12.396;2024-03-25T20:13:42;9.83;;;6.87;;
4210;SDS011;2119;48.828;12.396;2024-03-25T20:18:43;9.33;;;6.90;;
4210;SDS011;2119;48.828;12.396;2024-03-25T20:23:43;9.90;;;5.70;;
4210;SDS011;2119;48.828;12.396;2024-03-25T20:28:43;6.53;;;5.77;;
4210;SDS011;2119;48.828;12.396;2024-03-25T20:33:43;5.70;;;5.30;;
4210;SDS011;2119;48.828;12.396;2024-03-25T20:38:43;6.20;;;5.43;;
4210;SDS011;2119;48.828;12.396;2024-03-25T20:43:44;7.47;;;5.67;;
4210;SDS011;2119;48.828;12.396;2024-03-25T20:48:44;10.47;;;6.00;;
4210;SDS011;2119;48.828;12.396;2024-03-25T20:53:44;7.30;;;5.80;;
4210;SDS011;2119;48.828;12.396;2024-03-25T20:58:45;6.33;;;5.50;;
4210;SDS011;2119;48.828;12.396;2024-03-25T21:03:45;5.77;;;5.27;;
4210;SDS011;2119;48.828;12.396;2024-03-25T21:08:46;5.50;;;5.00;;
4210;SDS011;2119;48.828;12.396;2024-03-25T21:13:46;6.00;;;5.10;;
4210;SDS011;2119;48.828;12.396;2024-03-25T21:18:46;5.50;;;5.00;;
4210;SDS011;2119;48.828;12.396;2024-03-25T21:23:46;7.82;;;5.63;;
4210;SDS011;2119;48.828;12.396;2024-03-25T21:28:47;6.73;;;5.50;;
4210;SDS011;2119;48.828;12.396;2024-03-25T21:33:47;9.83;;;6.00;;
4210;SDS011;2119;48.828;12.396;2024-03-25T21:38:47;8.27;;;6.03;;
4210;SDS011;2119;48.828;12.396;2024-03-25T21:43:47;9.77;;;6.17;;
4210;SDS011;2119;48.828;12.396;2024-03-25T21:48:47;6.47;;;5.67;;
4210;SDS011;2119;48.828;12.396;2024-03-25T21:53:47;6.33;;;5.73;;
4210;SDS011;2119;48.828;12.396;2024-03-25T21:58:48;9.50;;;5.33;;
4210;SDS011;2119;48.828;12.396;2024-03-25T22:03:48;5.53;;;5.03;;
4210;SDS011;2119;48.828;12.396;2024-03-25T22:08:48;4.50;;;3.95;;
4210;SDS011;2119;48.828;12.396;2024-03-25T22:13:48;4.00;;;3.15;;
4210;SDS011;2119;48.828;12.396;2024-03-25T22:18:49;4.20;;;3.23;;
4210;SDS011;2119;48.828;12.396;2024-03-25T22:23:49;4.57;;;3.03;;
4210;SDS011;2119;48.828;12.396;2024-03-25T22:28:49;3.20;;;2.90;;
4210;SDS011;2119;48.828;12.396;2024-03-25T22:33:49;3.63;;;3.13;;
4210;SDS011;2119;48.828;12.396;2024-03-25T22:38:49;4.10;;;3.20;;
4210;SDS011;2119;48.828;12.396;2024-03-25T22:43:49;3.83;;;3.07;;
4210;SDS011;2119;48.828;12.396;2024-03-25T22:48:50;3.57;;;3.03;;
4210;SDS011;2119;48.828;12.396;2024-03-25T22:53:50;2.90;;;2.70;;
4210;SDS011;2119;48.828;12.396;2024-03-25T22:58:50;3.10;;;2.80;;
4210;SDS011;2119;48.828;12.396;2024-03-25T23:03:50;4.10;;;3.60;;
4210;SDS011;2119;48.828;12.396;2024-03-25T23:08:51;4.73;;;3.43;;
4210;SDS011;2119;48.828;12.396;2024-03-25T23:13:51;2.83;;;2.63;;
4210;SDS011;2119;48.828;12.396;2024-03-25T23:18:51;3.57;;;2.90;;
4210;SDS011;2119;48.828;12.396;2024-03-25T23:23:51;5.23;;;3.40;;
4210;SDS011;2119;48.828;12.396;2024-03-25T23:28:51;3.90;;;3.55;;
4210;SDS011;2119;48.828;12.396;2024-03-25T23:33:52;2.92;;;2.70;;
4210;SDS011;2119;48.828;12.396;2024-03-25T23:38:52;3.72;;;3.42;;
4210;SDS011;2119;48.828;12.396;2024-03-25T23:43:52;2.97;;;2.73;;
4210;SDS011;2119;48.828;12.396;2024-03-25T23:48:52;3.70;;;2.80;;
4210;SDS011;2119;48.828;12.396;2024-03-25T23:53:52;3.60;;;3.30;;
4210;SDS011;2119;48.828;12.396;2024-03-25T23:58:53;2.93;;;2.73;;
